sensor_id;sensor_type;location;lat;lon;timestamp;temperature;humidity
30328;DHT22;17133;52.418;13.398;2022-07-29T00:01:47;16.70;99.90
30328;DHT22;17133;52.418;13.398;2022-07-29T00:04:12;16.90;99.90
30328;DHT22;17133;52.418;13.398;2022-07-29T00:06:39;16.90;99.90
30328;DHT22;17133;52.418;13.398;2022-07-29T00:13:57;16.70;99.90
30328;DHT22;17133;52.418;13.398;2022-07-29T00:23:40;16.50;99.90
30328;DHT22;17133;52.418;13.398;2022-07-29T00:28:32;16.80;99.90
30328;DHT22;17133;52.418;13.398;2022-07-29T00:30:58;16.50;99.90
30328;DHT22;17133;52.418;13.398;2022-07-29T00:33:23;16.40;99.90
30328;DHT22;17133;52.418;13.398;2022-07-29T00:35:49;16.40;99.90
30328;DHT22;17133;52.418;13.398;2022-07-29T00:40:43;16.40;99.90
30328;DHT22;17133;52.418;13.398;2022-07-29T00:43:10;16.50;99.90
30328;DHT22;17133;52.418;13.398;2022-07-29T00:45:36;15.90;99.90
30328;DHT22;17133;52.418;13.398;2022-07-29T00:55:22;16.30;99.90
30328;DHT22;17133;52.418;13.398;2022-07-29T00:57:48;16.30;99.90
30328;DHT22;17133;52.418;13.398;2022-07-29T01:00:20;16.30;99.90
30328;DHT22;17133;52.418;13.398;2022-07-29T01:02:47;16.30;99.90
30328;DHT22;17133;52.418;13.398;2022-07-29T01:27:45;16.10;99.90
30328;DHT22;17133;52.418;13.398;2022-07-29T01:30:13;16.00;99.90
30328;DHT22;17133;52.418;13.398;2022-07-29T01:35:30;16.00;99.90
30328;DHT22;17133;52.418;13.398;2022-07-29T01:40:52;15.70;99.90
30328;DHT22;17133;52.418;13.398;2022-07-29T01:43:35;15.90;99.90
30328;DHT22;17133;52.418;13.398;2022-07-29T01:46:11;15.90;99.90
30328;DHT22;17133;52.418;13.398;2022-07-29T01:48:40;15.90;99.90
30328;DHT22;17133;52.418;13.398;2022-07-29T01:51:17;15.90;99.90
30328;DHT22;17133;52.418;13.398;2022-07-29T01:53:55;16.00;99.90
30328;DHT22;17133;52.418;13.398;2022-07-29T01:56:23;16.00;99.90
30328;DHT22;17133;52.418;13.398;2022-07-29T01:58:50;15.90;99.90
30328;DHT22;17133;52.418;13.398;2022-07-29T02:03:45;15.90;99.90
30328;DHT22;17133;52.418;13.398;2022-07-29T02:06:11;15.80;99.90
30328;DHT22;17133;52.418;13.398;2022-07-29T02:08:38;15.90;99.90
30328;DHT22;17133;52.418;13.398;2022-07-29T02:15:58;15.80;99.90
30328;DHT22;17133;52.418;13.398;2022-07-29T02:18:28;15.10;99.90
30328;DHT22;17133;52.418;13.398;2022-07-29T02:20:56;15.70;99.90
30328;DHT22;17133;52.418;13.398;2022-07-29T02:23:24;15.60;99.90
30328;DHT22;17133;52.418;13.398;2022-07-29T02:25:53;15.60;99.90
30328;DHT22;17133;52.418;13.398;2022-07-29T02:28:28;15.60;99.90
30328;DHT22;17133;52.418;13.398;2022-07-29T02:30:59;15.70;99.90
30328;DHT22;17133;52.418;13.398;2022-07-29T02:33:27;15.70;99.90
30328;DHT22;17133;52.418;13.398;2022-07-29T02:35:54;16.10;99.90
30328;DHT22;17133;52.418;13.398;2022-07-29T02:38:22;15.80;99.90
30328;DHT22;17133;52.418;13.398;2022-07-29T02:41:12;15.60;99.90
30328;DHT22;17133;52.418;13.398;2022-07-29T02:43:40;15.40;99.90
30328;DHT22;17133;52.418;13.398;2022-07-29T02:46:13;15.60;99.90
30328;DHT22;17133;52.418;13.398;2022-07-29T02:48:50;15.60;99.90
30328;DHT22;17133;52.418;13.398;2022-07-29T02:51:25;15.30;99.90
30328;DHT22;17133;52.418;13.398;2022-07-29T02:53:53;13.70;99.90
30328;DHT22;17133;52.418;13.398;2022-07-29T02:56:25;15.00;99.90
30328;DHT22;17133;52.418;13.398;2022-07-29T02:58:58;15.60;99.90
30328;DHT22;17133;52.418;13.398;2022-07-29T03:01:25;15.50;99.90
30328;DHT22;17133;52.418;13.398;2022-07-29T03:03:54;15.50;99.90
30328;DHT22;17133;52.418;13.398;2022-07-29T03:06:22;15.50;99.90
30328;DHT22;17133;52.418;13.398;2022-07-29T03:08:49;15.50;99.90
30328;DHT22;17133;52.418;13.398;2022-07-29T03:11:16;15.50;99.90
30328;DHT22;17133;52.418;13.398;2022-07-29T03:13:42;15.30;99.90
30328;DHT22;17133;52.418;13.398;2022-07-29T03:16:09;15.50;99.90
30328;DHT22;17133;52.418;13.398;2022-07-29T03:18:36;15.50;99.90
30328;DHT22;17133;52.418;13.398;2022-07-29T03:21:03;15.50;99.90
30328;DHT22;17133;52.418;13.398;2022-07-29T03:23:29;15.50;99.90
30328;DHT22;17133;52.418;13.398;2022-07-29T03:25:55;15.50;99.90
30328;DHT22;17133;52.418;13.398;2022-07-29T03:28:20;15.20;99.90
30328;DHT22;17133;52.418;13.398;2022-07-29T03:30:47;15.50;99.90
30328;DHT22;17133;52.418;13.398;2022-07-29T03:33:13;15.60;99.90
30328;DHT22;17133;52.418;13.398;2022-07-29T03:35:38;15.50;99.90
30328;DHT22;17133;52.418;13.398;2022-07-29T03:38:04;15.50;99.90
30328;DHT22;17133;52.418;13.398;2022-07-29T03:40:54;15.50;99.90
30328;DHT22;17133;52.418;13.398;2022-07-29T03:43:20;15.50;99.90
30328;DHT22;17133;52.418;13.398;2022-07-29T03:45:49;15.50;99.90
30328;DHT22;17133;52.418;13.398;2022-07-29T03:48:20;15.50;99.90
30328;DHT22;17133;52.418;13.398;2022-07-29T03:50:46;15.50;99.90
30328;DHT22;17133;52.418;13.398;2022-07-29T03:53:12;15.60;99.90
30328;DHT22;17133;52.418;13.398;2022-07-29T03:55:43;15.50;99.90
30328;DHT22;17133;52.418;13.398;2022-07-29T03:58:10;15.50;99.90
30328;DHT22;17133;52.418;13.398;2022-07-29T04:00:37;15.60;99.90
30328;DHT22;17133;52.418;13.398;2022-07-29T04:03:04;15.10;99.90
30328;DHT22;17133;52.418;13.398;2022-07-29T04:05:30;15.60;99.90
30328;DHT22;17133;52.418;13.398;2022-07-29T04:07:56;15.60;99.90
30328;DHT22;17133;52.418;13.398;2022-07-29T04:10:22;15.60;99.90
30328;DHT22;17133;52.418;13.398;2022-07-29T04:12:50;15.60;99.90
30328;DHT22;17133;52.418;13.398;2022-07-29T04:15:16;15.60;99.90
30328;DHT22;17133;52.418;13.398;2022-07-29T04:17:41;15.60;99.90
30328;DHT22;17133;52.418;13.398;2022-07-29T04:20:08;15.70;99.90
30328;DHT22;17133;52.418;13.398;2022-07-29T04:22:34;15.70;99.90
30328;DHT22;17133;52.418;13.398;2022-07-29T04:25:00;15.70;99.90
30328;DHT22;17133;52.418;13.398;2022-07-29T04:27:25;15.70;99.90
30328;DHT22;17133;52.418;13.398;2022-07-29T04:29:51;15.70;99.90
30328;DHT22;17133;52.418;13.398;2022-07-29T04:32:16;15.70;99.90
30328;DHT22;17133;52.418;13.398;2022-07-29T04:34:42;15.70;99.90
30328;DHT22;17133;52.418;13.398;2022-07-29T04:37:08;15.70;99.90
30328;DHT22;17133;52.418;13.398;2022-07-29T04:39:33;15.90;99.90
30328;DHT22;17133;52.418;13.398;2022-07-29T04:41:59;15.80;99.90
30328;DHT22;17133;52.418;13.398;2022-07-29T04:44:25;15.80;99.90
30328;DHT22;17133;52.418;13.398;2022-07-29T04:46:50;15.80;99.90
30328;DHT22;17133;52.418;13.398;2022-07-29T04:49:16;15.80;99.90
30328;DHT22;17133;52.418;13.398;2022-07-29T04:51:41;15.90;99.90
30328;DHT22;17133;52.418;13.398;2022-07-29T04:54:07;15.90;99.90
30328;DHT22;17133;52.418;13.398;2022-07-29T04:56:33;15.90;99.90
30328;DHT22;17133;52.418;13.398;2022-07-29T04:58:58;16.00;99.90
30328;DHT22;17133;52.418;13.398;2022-07-29T05:01:24;16.10;99.90
30328;DHT22;17133;52.418;13.398;2022-07-29T05:03:50;16.10;99.90
30328;DHT22;17133;52.418;13.398;2022-07-29T05:06:15;16.10;99.90
30328;DHT22;17133;52.418;13.398;2022-07-29T05:08:41;16.20;99.90
30328;DHT22;17133;52.418;13.398;2022-07-29T05:11:07;16.80;99.90
30328;DHT22;17133;52.418;13.398;2022-07-29T05:13:32;16.20;99.90
30328;DHT22;17133;52.418;13.398;2022-07-29T05:15:59;16.30;99.90
30328;DHT22;17133;52.418;13.398;2022-07-29T05:18:25;16.30;99.90
30328;DHT22;17133;52.418;13.398;2022-07-29T05:20:51;15.90;99.90
30328;DHT22;17133;52.418;13.398;2022-07-29T05:23:16;16.30;99.90
30328;DHT22;17133;52.418;13.398;2022-07-29T05:25:42;16.30;99.90
30328;DHT22;17133;52.418;13.398;2022-07-29T05:28:07;16.20;99.90
30328;DHT22;17133;52.418;13.398;2022-07-29T05:30:33;16.30;99.90
30328;DHT22;17133;52.418;13.398;2022-07-29T05:32:59;16.30;99.90
30328;DHT22;17133;52.418;13.398;2022-07-29T05:35:24;15.70;99.90
30328;DHT22;17133;52.418;13.398;2022-07-29T05:37:50;16.30;99.90
30328;DHT22;17133;52.418;13.398;2022-07-29T05:40:16;16.40;99.90
30328;DHT22;17133;52.418;13.398;2022-07-29T05:42:41;16.20;99.90
30328;DHT22;17133;52.418;13.398;2022-07-29T05:45:07;16.40;99.90
30328;DHT22;17133;52.418;13.398;2022-07-29T05:47:34;16.30;99.90
30328;DHT22;17133;52.418;13.398;2022-07-29T05:49:59;16.50;99.90
30328;DHT22;17133;52.418;13.398;2022-07-29T05:52:25;16.60;99.90
30328;DHT22;17133;52.418;13.398;2022-07-29T05:54:50;16.60;99.90
30328;DHT22;17133;52.418;13.398;2022-07-29T05:57:22;16.70;99.90
30328;DHT22;17133;52.418;13.398;2022-07-29T05:59:49;16.80;99.90
30328;DHT22;17133;52.418;13.398;2022-07-29T06:02:15;16.90;99.90
30328;DHT22;17133;52.418;13.398;2022-07-29T06:04:41;17.00;99.90
30328;DHT22;17133;52.418;13.398;2022-07-29T06:07:06;17.10;99.90
30328;DHT22;17133;52.418;13.398;2022-07-29T06:09:33;17.20;99.90
30328;DHT22;17133;52.418;13.398;2022-07-29T06:11:59;17.30;99.90
30328;DHT22;17133;52.418;13.398;2022-07-29T06:14:25;17.40;99.90
30328;DHT22;17133;52.418;13.398;2022-07-29T06:16:51;17.50;99.90
30328;DHT22;17133;52.418;13.398;2022-07-29T06:19:18;17.70;99.90
30328;DHT22;17133;52.418;13.398;2022-07-29T06:21:45;17.80;99.90
30328;DHT22;17133;52.418;13.398;2022-07-29T06:24:12;17.90;99.90
30328;DHT22;17133;52.418;13.398;2022-07-29T06:26:39;18.10;99.90
30328;DHT22;17133;52.418;13.398;2022-07-29T06:29:06;18.20;99.90
30328;DHT22;17133;52.418;13.398;2022-07-29T06:31:31;18.30;99.90
30328;DHT22;17133;52.418;13.398;2022-07-29T06:33:57;18.00;99.90
30328;DHT22;17133;52.418;13.398;2022-07-29T06:36:22;18.60;99.90
30328;DHT22;17133;52.418;13.398;2022-07-29T06:38:48;18.80;99.90
30328;DHT22;17133;52.418;13.398;2022-07-29T06:41:13;18.90;99.90
30328;DHT22;17133;52.418;13.398;2022-07-29T06:43:42;19.00;99.90
30328;DHT22;17133;52.418;13.398;2022-07-29T06:46:10;19.00;99.90
30328;DHT22;17133;52.418;13.398;2022-07-29T06:48:36;19.00;99.90
30328;DHT22;17133;52.418;13.398;2022-07-29T06:51:03;19.00;99.90
30328;DHT22;17133;52.418;13.398;2022-07-29T06:53:30;19.10;99.90
30328;DHT22;17133;52.418;13.398;2022-07-29T06:55:56;19.10;99.90
30328;DHT22;17133;52.418;13.398;2022-07-29T06:58:21;19.10;99.90
30328;DHT22;17133;52.418;13.398;2022-07-29T07:00:47;19.20;99.90
30328;DHT22;17133;52.418;13.398;2022-07-29T07:03:14;19.30;99.90
30328;DHT22;17133;52.418;13.398;2022-07-29T07:05:40;19.30;99.90
30328;DHT22;17133;52.418;13.398;2022-07-29T07:08:05;19.40;99.90
30328;DHT22;17133;52.418;13.398;2022-07-29T07:10:32;19.50;99.90
30328;DHT22;17133;52.418;13.398;2022-07-29T07:12:57;19.70;99.90
30328;DHT22;17133;52.418;13.398;2022-07-29T07:15:24;19.80;99.90
30328;DHT22;17133;52.418;13.398;2022-07-29T07:17:49;19.90;99.90
30328;DHT22;17133;52.418;13.398;2022-07-29T07:20:16;20.00;99.90
30328;DHT22;17133;52.418;13.398;2022-07-29T07:22:42;20.20;99.90
30328;DHT22;17133;52.418;13.398;2022-07-29T07:25:08;20.40;99.90
30328;DHT22;17133;52.418;13.398;2022-07-29T07:27:34;20.60;99.90
30328;DHT22;17133;52.418;13.398;2022-07-29T07:30:00;20.00;99.90
30328;DHT22;17133;52.418;13.398;2022-07-29T07:32:25;21.10;99.90
30328;DHT22;17133;52.418;13.398;2022-07-29T07:34:51;21.60;99.90
30328;DHT22;17133;52.418;13.398;2022-07-29T07:37:17;22.00;99.90
30328;DHT22;17133;52.418;13.398;2022-07-29T07:39:45;22.50;99.90
30328;DHT22;17133;52.418;13.398;2022-07-29T07:42:10;23.40;99.90
30328;DHT22;17133;52.418;13.398;2022-07-29T07:44:38;23.50;99.50
30328;DHT22;17133;52.418;13.398;2022-07-29T07:47:04;23.60;95.50
30328;DHT22;17133;52.418;13.398;2022-07-29T07:49:30;23.90;95.30
30328;DHT22;17133;52.418;13.398;2022-07-29T07:51:55;24.30;95.70
30328;DHT22;17133;52.418;13.398;2022-07-29T07:54:21;24.80;94.30
30328;DHT22;17133;52.418;13.398;2022-07-29T07:56:47;24.80;90.50
30328;DHT22;17133;52.418;13.398;2022-07-29T08:01:42;25.90;99.30
30328;DHT22;17133;52.418;13.398;2022-07-29T08:06:34;25.70;98.50
30328;DHT22;17133;52.418;13.398;2022-07-29T08:11:27;25.80;98.40
30328;DHT22;17133;52.418;13.398;2022-07-29T08:13:52;25.80;99.70
30328;DHT22;17133;52.418;13.398;2022-07-29T08:16:18;25.80;99.90
30328;DHT22;17133;52.418;13.398;2022-07-29T08:18:45;26.10;99.90
30328;DHT22;17133;52.418;13.398;2022-07-29T08:23:38;26.80;99.90
30328;DHT22;17133;52.418;13.398;2022-07-29T08:28:40;27.10;80.80
30328;DHT22;17133;52.418;13.398;2022-07-29T08:31:06;27.00;76.90
30328;DHT22;17133;52.418;13.398;2022-07-29T08:33:32;26.80;76.20
30328;DHT22;17133;52.418;13.398;2022-07-29T08:36:00;26.60;73.00
30328;DHT22;17133;52.418;13.398;2022-07-29T08:38:25;26.20;74.50
30328;DHT22;17133;52.418;13.398;2022-07-29T08:40:52;26.40;70.40
30328;DHT22;17133;52.418;13.398;2022-07-29T08:43:20;26.10;70.40
30328;DHT22;17133;52.418;13.398;2022-07-29T08:45:48;26.10;69.50
30328;DHT22;17133;52.418;13.398;2022-07-29T08:48:17;24.60;68.70
30328;DHT22;17133;52.418;13.398;2022-07-29T08:50:44;25.90;73.60
30328;DHT22;17133;52.418;13.398;2022-07-29T08:53:14;25.80;71.10
30328;DHT22;17133;52.418;13.398;2022-07-29T08:55:44;26.00;74.50
30328;DHT22;17133;52.418;13.398;2022-07-29T08:58:10;25.80;75.40
30328;DHT22;17133;52.418;13.398;2022-07-29T09:00:37;25.10;73.10
30328;DHT22;17133;52.418;13.398;2022-07-29T09:03:06;25.60;76.00
30328;DHT22;17133;52.418;13.398;2022-07-29T09:05:34;25.60;72.90
30328;DHT22;17133;52.418;13.398;2022-07-29T09:08:00;25.70;75.40
30328;DHT22;17133;52.418;13.398;2022-07-29T09:10:26;26.00;76.90
30328;DHT22;17133;52.418;13.398;2022-07-29T09:12:52;26.30;75.70
30328;DHT22;17133;52.418;13.398;2022-07-29T09:15:18;26.50;72.80
30328;DHT22;17133;52.418;13.398;2022-07-29T09:17:45;26.10;68.70
30328;DHT22;17133;52.418;13.398;2022-07-29T09:20:14;26.70;68.80
30328;DHT22;17133;52.418;13.398;2022-07-29T09:22:39;27.00;71.20
30328;DHT22;17133;52.418;13.398;2022-07-29T09:25:05;27.30;66.50
30328;DHT22;17133;52.418;13.398;2022-07-29T09:32:30;27.80;64.50
30328;DHT22;17133;52.418;13.398;2022-07-29T09:37:40;27.50;59.20
30328;DHT22;17133;52.418;13.398;2022-07-29T09:40:20;27.40;60.50
30328;DHT22;17133;52.418;13.398;2022-07-29T09:42:46;27.30;60.60
30328;DHT22;17133;52.418;13.398;2022-07-29T09:45:25;27.20;58.20
30328;DHT22;17133;52.418;13.398;2022-07-29T09:47:51;27.30;58.40
30328;DHT22;17133;52.418;13.398;2022-07-29T09:50:16;27.30;59.10
30328;DHT22;17133;52.418;13.398;2022-07-29T09:52:49;27.40;58.00
30328;DHT22;17133;52.418;13.398;2022-07-29T09:55:15;27.40;58.40
30328;DHT22;17133;52.418;13.398;2022-07-29T09:57:42;27.10;58.50
30328;DHT22;17133;52.418;13.398;2022-07-29T10:00:11;27.10;58.50
30328;DHT22;17133;52.418;13.398;2022-07-29T10:02:39;27.20;59.30
30328;DHT22;17133;52.418;13.398;2022-07-29T10:05:16;27.50;57.10
30328;DHT22;17133;52.418;13.398;2022-07-29T10:07:47;27.60;54.30
30328;DHT22;17133;52.418;13.398;2022-07-29T10:10:34;28.00;55.30
30328;DHT22;17133;52.418;13.398;2022-07-29T10:15:40;28.30;53.60
30328;DHT22;17133;52.418;13.398;2022-07-29T10:18:10;28.20;55.30
30328;DHT22;17133;52.418;13.398;2022-07-29T10:20:37;28.10;52.30
30328;DHT22;17133;52.418;13.398;2022-07-29T10:23:03;28.00;53.50
30328;DHT22;17133;52.418;13.398;2022-07-29T10:25:29;27.80;51.80
30328;DHT22;17133;52.418;13.398;2022-07-29T10:27:55;27.70;52.50
30328;DHT22;17133;52.418;13.398;2022-07-29T10:30:22;27.50;52.10
30328;DHT22;17133;52.418;13.398;2022-07-29T10:32:57;27.30;54.30
30328;DHT22;17133;52.418;13.398;2022-07-29T10:43:44;28.10;53.80
30328;DHT22;17133;52.418;13.398;2022-07-29T10:46:11;28.50;53.20
30328;DHT22;17133;52.418;13.398;2022-07-29T10:49:15;28.90;54.40
30328;DHT22;17133;52.418;13.398;2022-07-29T10:57:28;29.10;48.90
30328;DHT22;17133;52.418;13.398;2022-07-29T11:05:05;28.40;50.90
30328;DHT22;17133;52.418;13.398;2022-07-29T11:07:33;28.80;51.20
30328;DHT22;17133;52.418;13.398;2022-07-29T11:10:20;28.70;52.10
30328;DHT22;17133;52.418;13.398;2022-07-29T11:12:46;28.60;51.00
30328;DHT22;17133;52.418;13.398;2022-07-29T11:15:17;28.60;51.10
30328;DHT22;17133;52.418;13.398;2022-07-29T11:20:47;29.30;53.90
30328;DHT22;17133;52.418;13.398;2022-07-29T11:26:12;30.10;58.00
30328;DHT22;17133;52.418;13.398;2022-07-29T11:28:34;30.20;54.90
30328;DHT22;17133;52.418;13.398;2022-07-29T11:31:01;30.40;52.20
30328;DHT22;17133;52.418;13.398;2022-07-29T11:33:32;30.50;50.50
30328;DHT22;17133;52.418;13.398;2022-07-29T11:49:07;30.90;53.80
30328;DHT22;17133;52.418;13.398;2022-07-29T11:51:35;30.90;54.50
30328;DHT22;17133;52.418;13.398;2022-07-29T11:54:01;31.10;53.40
30328;DHT22;17133;52.418;13.398;2022-07-29T11:56:31;31.10;52.70
30328;DHT22;17133;52.418;13.398;2022-07-29T12:11:25;31.60;92.70
30328;DHT22;17133;52.418;13.398;2022-07-29T12:13:52;30.40;47.90
30328;DHT22;17133;52.418;13.398;2022-07-29T12:16:20;31.60;48.10
30328;DHT22;17133;52.418;13.398;2022-07-29T17:00:11;27.00;58.40
30328;DHT22;17133;52.418;13.398;2022-07-29T17:02:37;27.10;58.90
30328;DHT22;17133;52.418;13.398;2022-07-29T17:05:07;27.00;59.90
30328;DHT22;17133;52.418;13.398;2022-07-29T17:07:33;26.50;59.90
30328;DHT22;17133;52.418;13.398;2022-07-29T17:09:59;26.90;58.80
30328;DHT22;17133;52.418;13.398;2022-07-29T17:12:26;26.80;59.20
30328;DHT22;17133;52.418;13.398;2022-07-29T17:14:51;25.30;58.00
30328;DHT22;17133;52.418;13.398;2022-07-29T17:17:17;26.80;59.50
30328;DHT22;17133;52.418;13.398;2022-07-29T17:19:43;26.70;59.40
30328;DHT22;17133;52.418;13.398;2022-07-29T17:22:08;26.70;59.10
30328;DHT22;17133;52.418;13.398;2022-07-29T17:24:34;26.70;59.20
30328;DHT22;17133;52.418;13.398;2022-07-29T17:27:00;26.60;59.40
30328;DHT22;17133;52.418;13.398;2022-07-29T17:29:25;26.60;59.60
30328;DHT22;17133;52.418;13.398;2022-07-29T17:31:51;26.60;59.30
30328;DHT22;17133;52.418;13.398;2022-07-29T17:34:17;26.50;59.20
30328;DHT22;17133;52.418;13.398;2022-07-29T17:36:43;26.30;58.50
30328;DHT22;17133;52.418;13.398;2022-07-29T17:39:08;26.50;58.50
30328;DHT22;17133;52.418;13.398;2022-07-29T17:41:37;26.50;58.60
30328;DHT22;17133;52.418;13.398;2022-07-29T17:44:05;28.50;59.80
30328;DHT22;17133;52.418;13.398;2022-07-29T17:46:31;26.40;58.70
30328;DHT22;17133;52.418;13.398;2022-07-29T17:48:57;26.30;59.00
30328;DHT22;17133;52.418;13.398;2022-07-29T17:51:24;26.30;58.50
30328;DHT22;17133;52.418;13.398;2022-07-29T17:53:50;26.30;59.00
30328;DHT22;17133;52.418;13.398;2022-07-29T17:56:15;26.30;59.60
30328;DHT22;17133;52.418;13.398;2022-07-29T17:58:41;26.20;59.40
30328;DHT22;17133;52.418;13.398;2022-07-29T18:01:07;26.10;59.10
30328;DHT22;17133;52.418;13.398;2022-07-29T18:03:33;26.10;59.40
30328;DHT22;17133;52.418;13.398;2022-07-29T18:05:59;26.10;59.00
30328;DHT22;17133;52.418;13.398;2022-07-29T18:08:25;26.10;59.40
30328;DHT22;17133;52.418;13.398;2022-07-29T18:10:52;26.00;59.70
30328;DHT22;17133;52.418;13.398;2022-07-29T18:13:18;26.00;59.50
30328;DHT22;17133;52.418;13.398;2022-07-29T18:15:44;25.90;59.80
30328;DHT22;17133;52.418;13.398;2022-07-29T18:18:11;25.90;59.40
30328;DHT22;17133;52.418;13.398;2022-07-29T18:20:37;25.90;59.20
30328;DHT22;17133;52.418;13.398;2022-07-29T18:23:03;25.10;59.10
30328;DHT22;17133;52.418;13.398;2022-07-29T18:25:28;25.70;59.50
30328;DHT22;17133;52.418;13.398;2022-07-29T18:27:54;25.70;59.50
30328;DHT22;17133;52.418;13.398;2022-07-29T18:30:20;25.60;60.20
30328;DHT22;17133;52.418;13.398;2022-07-29T18:32:46;25.50;60.80
30328;DHT22;17133;52.418;13.398;2022-07-29T18:35:11;25.50;61.50
30328;DHT22;17133;52.418;13.398;2022-07-29T18:37:37;25.40;61.20
30328;DHT22;17133;52.418;13.398;2022-07-29T18:40:04;25.40;60.70
30328;DHT22;17133;52.418;13.398;2022-07-29T18:42:29;25.30;59.90
30328;DHT22;17133;52.418;13.398;2022-07-29T18:44:55;25.30;62.50
30328;DHT22;17133;52.418;13.398;2022-07-29T18:47:22;25.20;61.90
30328;DHT22;17133;52.418;13.398;2022-07-29T18:49:48;25.80;62.90
30328;DHT22;17133;52.418;13.398;2022-07-29T18:52:13;25.10;62.20
30328;DHT22;17133;52.418;13.398;2022-07-29T18:54:39;24.60;61.30
30328;DHT22;17133;52.418;13.398;2022-07-29T18:57:05;25.00;63.00
30328;DHT22;17133;52.418;13.398;2022-07-29T18:59:30;24.90;63.40
30328;DHT22;17133;52.418;13.398;2022-07-29T19:01:58;27.20;66.50
30328;DHT22;17133;52.418;13.398;2022-07-29T19:04:23;24.70;64.20
30328;DHT22;17133;52.418;13.398;2022-07-29T19:06:49;24.60;63.90
30328;DHT22;17133;52.418;13.398;2022-07-29T19:09:15;25.20;64.60
30328;DHT22;17133;52.418;13.398;2022-07-29T19:11:41;24.60;65.80
30328;DHT22;17133;52.418;13.398;2022-07-29T19:14:07;24.40;66.00
30328;DHT22;17133;52.418;13.398;2022-07-29T19:16:33;24.30;66.10
30328;DHT22;17133;52.418;13.398;2022-07-29T19:18:58;24.30;65.30
30328;DHT22;17133;52.418;13.398;2022-07-29T19:21:25;24.20;65.80
30328;DHT22;17133;52.418;13.398;2022-07-29T19:23:51;24.10;65.60
30328;DHT22;17133;52.418;13.398;2022-07-29T19:26:17;24.00;66.20
30328;DHT22;17133;52.418;13.398;2022-07-29T19:28:45;24.00;66.40
30328;DHT22;17133;52.418;13.398;2022-07-29T19:31:11;23.90;67.40
30328;DHT22;17133;52.418;13.398;2022-07-29T19:33:36;23.80;67.10
30328;DHT22;17133;52.418;13.398;2022-07-29T19:36:02;23.80;68.10
30328;DHT22;17133;52.418;13.398;2022-07-29T19:38:28;23.70;66.80
30328;DHT22;17133;52.418;13.398;2022-07-29T19:40:53;23.70;67.00
30328;DHT22;17133;52.418;13.398;2022-07-29T19:43:19;23.60;66.70
30328;DHT22;17133;52.418;13.398;2022-07-29T19:45:45;23.60;66.10
30328;DHT22;17133;52.418;13.398;2022-07-29T19:48:10;23.60;67.00
30328;DHT22;17133;52.418;13.398;2022-07-29T19:50:36;23.60;67.30
30328;DHT22;17133;52.418;13.398;2022-07-29T19:53:02;23.50;67.40
30328;DHT22;17133;52.418;13.398;2022-07-29T19:55:27;23.50;67.80
30328;DHT22;17133;52.418;13.398;2022-07-29T19:57:53;23.40;67.00
30328;DHT22;17133;52.418;13.398;2022-07-29T20:00:19;23.40;67.50
30328;DHT22;17133;52.418;13.398;2022-07-29T20:02:45;23.40;67.50
30328;DHT22;17133;52.418;13.398;2022-07-29T20:05:11;23.30;67.60
30328;DHT22;17133;52.418;13.398;2022-07-29T20:07:38;24.30;68.90
30328;DHT22;17133;52.418;13.398;2022-07-29T20:10:04;23.20;69.40
30328;DHT22;17133;52.418;13.398;2022-07-29T20:12:31;23.20;69.10
30328;DHT22;17133;52.418;13.398;2022-07-29T20:14:57;23.10;68.60
30328;DHT22;17133;52.418;13.398;2022-07-29T20:17:23;23.10;69.40
30328;DHT22;17133;52.418;13.398;2022-07-29T20:19:49;23.00;68.80
30328;DHT22;17133;52.418;13.398;2022-07-29T20:22:16;23.00;68.60
30328;DHT22;17133;52.418;13.398;2022-07-29T20:24:43;23.00;69.40
30328;DHT22;17133;52.418;13.398;2022-07-29T20:27:09;22.90;70.00
30328;DHT22;17133;52.418;13.398;2022-07-29T20:29:35;22.90;69.80
30328;DHT22;17133;52.418;13.398;2022-07-29T20:32:01;22.90;69.70
30328;DHT22;17133;52.418;13.398;2022-07-29T20:34:27;23.40;71.30
30328;DHT22;17133;52.418;13.398;2022-07-29T20:36:53;25.40;72.60
30328;DHT22;17133;52.418;13.398;2022-07-29T20:39:18;22.30;69.80
30328;DHT22;17133;52.418;13.398;2022-07-29T20:41:47;22.30;70.50
30328;DHT22;17133;52.418;13.398;2022-07-29T20:44:14;22.70;71.60
30328;DHT22;17133;52.418;13.398;2022-07-29T20:46:40;22.60;72.50
30328;DHT22;17133;52.418;13.398;2022-07-29T20:49:06;22.60;72.60
30328;DHT22;17133;52.418;13.398;2022-07-29T20:51:33;22.60;72.20
30328;DHT22;17133;52.418;13.398;2022-07-29T20:53:59;22.60;72.90
30328;DHT22;17133;52.418;13.398;2022-07-29T20:56:25;22.50;73.00
30328;DHT22;17133;52.418;13.398;2022-07-29T20:58:50;22.50;72.80
30328;DHT22;17133;52.418;13.398;2022-07-29T21:01:16;22.70;73.10
30328;DHT22;17133;52.418;13.398;2022-07-29T21:03:42;22.40;72.80
30328;DHT22;17133;52.418;13.398;2022-07-29T21:06:07;22.40;73.60
30328;DHT22;17133;52.418;13.398;2022-07-29T21:08:34;22.40;72.90
30328;DHT22;17133;52.418;13.398;2022-07-29T21:10:59;22.30;72.60
30328;DHT22;17133;52.418;13.398;2022-07-29T21:13:25;22.30;73.60
30328;DHT22;17133;52.418;13.398;2022-07-29T21:15:51;22.30;73.60
30328;DHT22;17133;52.418;13.398;2022-07-29T21:18:19;22.30;73.80
30328;DHT22;17133;52.418;13.398;2022-07-29T21:21:02;22.20;74.40
30328;DHT22;17133;52.418;13.398;2022-07-29T21:23:28;22.20;75.20
30328;DHT22;17133;52.418;13.398;2022-07-29T21:25:55;22.10;75.50
30328;DHT22;17133;52.418;13.398;2022-07-29T21:28:21;22.10;75.30
30328;DHT22;17133;52.418;13.398;2022-07-29T21:31:03;22.10;75.50
30328;DHT22;17133;52.418;13.398;2022-07-29T21:33:30;22.00;76.20
30328;DHT22;17133;52.418;13.398;2022-07-29T21:35:56;22.10;76.20
30328;DHT22;17133;52.418;13.398;2022-07-29T21:38:22;22.00;78.40
30328;DHT22;17133;52.418;13.398;2022-07-29T21:40:50;21.90;79.20
30328;DHT22;17133;52.418;13.398;2022-07-29T21:43:16;21.90;78.90
30328;DHT22;17133;52.418;13.398;2022-07-29T21:45:43;21.90;78.80
30328;DHT22;17133;52.418;13.398;2022-07-29T21:48:11;21.80;79.00
30328;DHT22;17133;52.418;13.398;2022-07-29T21:50:37;21.80;79.30
30328;DHT22;17133;52.418;13.398;2022-07-29T21:53:03;21.40;78.90
30328;DHT22;17133;52.418;13.398;2022-07-29T21:55:28;21.80;79.70
30328;DHT22;17133;52.418;13.398;2022-07-29T21:57:54;21.70;78.70
30328;DHT22;17133;52.418;13.398;2022-07-29T22:00:21;21.60;78.90
30328;DHT22;17133;52.418;13.398;2022-07-29T22:02:50;21.70;79.80
30328;DHT22;17133;52.418;13.398;2022-07-29T22:05:16;21.60;79.40
30328;DHT22;17133;52.418;13.398;2022-07-29T22:07:42;21.60;79.70
30328;DHT22;17133;52.418;13.398;2022-07-29T22:10:08;21.60;79.80